createdAt,value
2022-11-25T00:01:29.720Z,77.38
2022-11-25T00:03:58.810Z,77.41
2022-11-25T00:06:31.496Z,77.64
2022-11-25T00:09:07.875Z,77.21
2022-11-25T00:11:39.936Z,76.63
2022-11-25T00:14:09.873Z,76.79
2022-11-25T00:16:36.727Z,77.13
2022-11-25T00:19:03.765Z,76.19
2022-11-25T00:21:33.874Z,76.32
2022-11-25T00:24:06.764Z,75.89
2022-11-25T00:26:35.897Z,76.32
2022-11-25T00:29:06.480Z,75.56
2022-11-25T00:31:38.775Z,76.13
2022-11-25T00:34:06.119Z,76.27
2022-11-25T00:36:36.180Z,76.47
2022-11-25T00:39:10.022Z,76.56
2022-11-25T00:41:55.681Z,76.78
2022-11-25T00:44:41.478Z,77.34
2022-11-25T00:47:17.751Z,77.39
2022-11-25T00:49:53.442Z,77.77
2022-11-25T00:52:23.844Z,78.15
2022-11-25T00:54:51.937Z,78.51
2022-11-25T00:57:21.589Z,78.41
2022-11-25T00:59:49.242Z,78.39
2022-11-25T01:02:34.625Z,78.39
2022-11-25T01:05:01.921Z,77.45
2022-11-25T01:07:30.439Z,77.46
2022-11-25T01:09:57.362Z,78.09
2022-11-25T01:12:26.663Z,77.76
2022-11-25T01:14:53.685Z,77.77
2022-11-25T01:17:20.503Z,78.09
2022-11-25T01:19:47.749Z,78.37
2022-11-25T01:22:14.561Z,77.26
2022-11-25T01:24:43.125Z,77.37
2022-11-25T01:27:10.192Z,77.57
2022-11-25T01:29:37.457Z,76.97
2022-11-25T01:32:04.663Z,77.43
2022-11-25T01:34:34.615Z,77.25
2022-11-25T01:37:01.809Z,77.37
2022-11-25T01:39:32.834Z,77.03
2022-11-25T01:42:02.027Z,77.16
2022-11-25T01:44:31.241Z,76.56
2022-11-25T01:47:07.105Z,76.82
2022-11-25T01:50:05.188Z,76.35
2022-11-25T01:52:43.174Z,75.97
2022-11-25T01:55:15.894Z,75.44
2022-11-25T01:58:06.216Z,74.58
2022-11-25T02:00:33.495Z,74.49
2022-11-25T02:03:00.924Z,74.10
2022-11-25T02:06:09.253Z,73.91
2022-11-25T02:08:36.399Z,74.51
2022-11-25T02:11:06.826Z,73.64
2022-11-25T02:13:34.137Z,73.66
2022-11-25T02:16:01.146Z,73.77
2022-11-25T02:18:28.383Z,73.50
2022-11-25T02:20:55.329Z,73.61
2022-11-25T02:23:56.574Z,73.13
2022-11-25T02:26:24.141Z,73.20
2022-11-25T02:28:51.399Z,72.96
2022-11-25T02:31:22.317Z,72.56
2022-11-25T02:33:49.807Z,71.99
2022-11-25T02:36:20.690Z,71.73
2022-11-25T02:39:01.707Z,72.06
2022-11-25T02:41:34.840Z,71.91
2022-11-25T02:44:05.530Z,71.13
2022-11-25T02:46:33.096Z,71.03
2022-11-25T02:49:10.429Z,71.43
2022-11-25T02:51:41.428Z,71.40
2022-11-25T02:54:10.591Z,71.47
2022-11-25T02:56:37.583Z,71.54
2022-11-25T02:59:05.057Z,71.95
2022-11-25T03:01:32.533Z,72.38
2022-11-25T03:03:59.738Z,72.48
2022-11-25T03:06:29.271Z,72.25
2022-11-25T03:08:56.698Z,72.74
2022-11-25T03:11:47.128Z,73.21
2022-11-25T03:14:15.373Z,73.48
2022-11-25T03:16:43.389Z,73.68
2022-11-25T03:19:10.519Z,74.13
2022-11-25T03:21:37.471Z,74.08
2022-11-25T03:24:04.620Z,74.81
2022-11-25T03:26:31.590Z,74.98
2022-11-25T03:28:58.478Z,75.24
2022-11-25T03:31:25.457Z,75.78
2022-11-25T03:33:52.406Z,76.45
2022-11-25T03:36:21.165Z,76.28
2022-11-25T03:38:48.281Z,77.03
2022-11-25T03:41:15.179Z,77.37
2022-11-25T03:43:42.628Z,78.10
2022-11-25T03:46:10.087Z,78.77
2022-11-25T03:48:37.326Z,79.03
2022-11-25T03:51:04.316Z,79.51
2022-11-25T03:53:31.465Z,79.71
2022-11-25T03:56:00.935Z,79.76
2022-11-25T03:58:37.098Z,80.63
2022-11-25T04:01:05.774Z,80.56
2022-11-25T04:03:33.350Z,80.93
2022-11-25T04:06:00.334Z,81.33
2022-11-25T04:08:28.999Z,81.42
2022-11-25T04:10:56.574Z,81.46
2022-11-25T04:13:29.166Z,81.33
2022-11-25T04:15:56.684Z,81.52
2022-11-25T04:18:23.539Z,81.72
2022-11-25T04:20:54.865Z,81.51
2022-11-25T04:23:22.148Z,81.72
2022-11-25T04:26:00.382Z,82.04
2022-11-25T04:28:35.803Z,81.38
2022-11-25T04:31:07.342Z,81.43
2022-11-25T04:33:36.383Z,81.27
2022-11-25T04:36:03.892Z,81.40
2022-11-25T04:38:31.139Z,81.52
2022-11-25T04:40:58.815Z,81.46
2022-11-25T04:43:26.466Z,81.46
2022-11-25T04:46:16.147Z,81.71
2022-11-25T04:48:47.062Z,81.61
2022-11-25T04:51:15.653Z,81.53
2022-11-25T04:53:44.135Z,81.55
2022-11-25T04:56:18.503Z,81.46
2022-11-25T04:59:09.205Z,81.71
2022-11-25T05:01:40.363Z,81.71
2022-11-25T05:04:30.629Z,80.75
2022-11-25T05:06:57.883Z,80.89
2022-11-25T05:09:26.026Z,80.80
2022-11-25T05:12:05.934Z,81.13
2022-11-25T05:14:34.955Z,80.16
2022-11-25T05:17:03.649Z,80.29
2022-11-25T05:19:31.464Z,80.27
2022-11-25T05:21:58.564Z,79.97
2022-11-25T05:24:26.264Z,80.04
2022-11-25T05:26:55.840Z,79.67
2022-11-25T05:29:23.266Z,79.28
2022-11-25T05:31:50.207Z,78.51
2022-11-25T05:34:17.302Z,78.08
2022-11-25T05:36:45.441Z,78.38
2022-11-25T05:39:12.742Z,78.35
2022-11-25T05:42:11.852Z,77.53
2022-11-25T05:44:39.397Z,77.48
2022-11-25T05:47:07.117Z,77.31
2022-11-25T05:49:34.332Z,77.07
2022-11-25T05:52:01.504Z,76.80
2022-11-25T05:54:33.747Z,76.54
2022-11-25T05:57:01.560Z,76.21
2022-11-25T05:59:47.887Z,76.41
2022-11-25T06:02:21.533Z,76.19
2022-11-25T06:04:48.767Z,76.16
2022-11-25T06:07:16.921Z,74.84
2022-11-25T06:09:44.755Z,74.69
2022-11-25T06:12:12.146Z,74.27
2022-11-25T06:14:47.022Z,74.25
2022-11-25T06:17:13.989Z,73.90
2022-11-25T06:19:49.625Z,73.97
2022-11-25T06:22:16.616Z,73.75
2022-11-25T06:24:46.534Z,73.63
2022-11-25T06:27:16.177Z,72.99
2022-11-25T06:29:43.238Z,73.40
2022-11-25T06:32:11.574Z,72.72
2022-11-25T06:34:57.339Z,72.18
2022-11-25T06:37:44.481Z,72.94
2022-11-25T06:40:11.667Z,72.38
2022-11-25T06:42:39.780Z,71.59
2022-11-25T06:45:07.596Z,72.19
2022-11-25T06:47:34.609Z,72.40
2022-11-25T06:50:01.547Z,71.52
2022-11-25T06:52:33.250Z,71.96
2022-11-25T06:55:00.621Z,72.40
2022-11-25T06:57:27.552Z,72.17
2022-11-25T06:59:54.554Z,72.08
2022-11-25T07:02:21.594Z,71.82
2022-11-25T07:04:48.504Z,72.04
2022-11-25T07:07:15.590Z,71.60
2022-11-25T07:09:42.674Z,71.65
2022-11-25T07:12:09.577Z,71.57
2022-11-25T07:14:36.615Z,71.19
2022-11-25T07:17:07.476Z,71.26
2022-11-25T07:19:38.573Z,70.84
2022-11-25T07:22:05.680Z,70.27
2022-11-25T07:24:34.099Z,70.53
2022-11-25T07:27:01.409Z,70.50
2022-11-25T07:29:51.995Z,69.84
2022-11-25T07:32:17.262Z,70.04
2022-11-25T07:34:44.206Z,70.69
2022-11-25T07:37:11.637Z,70.39
2022-11-25T07:39:38.886Z,70.76
2022-11-25T07:42:06.106Z,71.43
2022-11-25T07:44:33.093Z,71.63
2022-11-25T07:47:11.672Z,71.88
2022-11-25T07:49:57.486Z,70.90
2022-11-25T07:52:24.385Z,71.09
2022-11-25T07:54:53.475Z,70.86
2022-11-25T07:57:20.907Z,70.80
2022-11-25T07:59:48.067Z,70.65
2022-11-25T08:02:15.223Z,70.80
2022-11-25T08:04:42.341Z,69.45
2022-11-25T08:07:10.941Z,69.04
2022-11-25T08:09:38.508Z,69.19
2022-11-25T08:12:05.804Z,69.14
2022-11-25T08:14:32.943Z,69.49
2022-11-25T08:16:59.948Z,69.29
2022-11-25T08:19:31.258Z,68.26
2022-11-25T08:21:58.604Z,68.74
2022-11-25T08:24:25.421Z,68.51
2022-11-25T08:26:53.377Z,68.85
2022-11-25T08:29:20.771Z,68.67
2022-11-25T08:31:47.725Z,67.99
2022-11-25T08:34:33.050Z,68.51
2022-11-25T08:37:03.880Z,68.57
2022-11-25T08:42:18.124Z,69.14
2022-11-25T08:44:45.039Z,68.16
2022-11-25T08:47:12.116Z,67.69
2022-11-25T08:49:41.380Z,66.78
2022-11-25T08:52:09.711Z,66.95
2022-11-25T08:54:36.735Z,67.49
2022-11-25T08:57:03.729Z,66.88
2022-11-25T08:59:30.852Z,66.55
2022-11-25T09:01:58.557Z,67.19
2022-11-25T09:04:25.531Z,67.56
2022-11-25T09:06:52.469Z,67.34
2022-11-25T09:09:19.646Z,67.63
2022-11-25T09:11:46.747Z,67.25
2022-11-25T09:14:14.288Z,66.13
2022-11-25T09:16:41.222Z,66.36
2022-11-25T09:19:08.094Z,67.27
2022-11-25T09:21:35.126Z,66.33
2022-11-25T09:24:02.311Z,65.86
2022-11-25T09:26:33.023Z,65.73
2022-11-25T09:29:00.003Z,65.72
2022-11-25T09:31:27.132Z,65.22
2022-11-25T09:33:54.380Z,64.94
2022-11-25T09:36:21.469Z,64.70
2022-11-25T09:38:48.405Z,64.74
2022-11-25T09:41:41.401Z,64.64
2022-11-25T09:44:44.141Z,64.85
2022-11-25T09:47:29.949Z,64.44
2022-11-25T09:50:14.817Z,64.33
2022-11-25T09:53:23.556Z,64.49
2022-11-25T09:56:00.014Z,65.24
2022-11-25T09:58:36.310Z,65.56
2022-11-25T10:01:17.180Z,65.87
2022-11-25T10:04:09.989Z,65.63
2022-11-25T10:06:52.067Z,66.03
2022-11-25T10:09:28.947Z,65.05
2022-11-25T10:12:19.373Z,65.28
2022-11-25T10:14:50.126Z,64.65
2022-11-25T10:17:43.538Z,64.41
2022-11-25T10:20:28.186Z,64.67
2022-11-25T10:23:28.088Z,65.20
2022-11-25T10:26:10.883Z,65.09
2022-11-25T10:28:40.854Z,65.24
2022-11-25T10:31:17.241Z,64.76
2022-11-25T10:33:47.671Z,64.52
2022-11-25T10:36:19.942Z,64.67
2022-11-25T10:38:57.565Z,63.65
2022-11-25T10:41:30.259Z,62.84
2022-11-25T10:43:57.439Z,63.01
2022-11-25T10:47:12.425Z,62.89
2022-11-25T10:49:46.254Z,62.97
2022-11-25T10:52:14.238Z,63.04
2022-11-25T10:54:41.794Z,62.63
2022-11-25T10:57:19.893Z,62.15
2022-11-25T11:00:08.763Z,62.38
2022-11-25T11:02:40.087Z,62.19
2022-11-25T11:05:10.267Z,62.33
2022-11-25T11:07:41.414Z,62.06
2022-11-25T11:10:17.675Z,62.26
2022-11-25T11:13:06.451Z,62.78
2022-11-25T11:15:47.366Z,62.90
2022-11-25T11:18:37.953Z,63.13
2022-11-25T11:21:23.392Z,63.84
2022-11-25T11:23:53.792Z,64.69
2022-11-25T11:26:29.169Z,64.60
2022-11-25T11:29:15.264Z,64.92
2022-11-25T11:31:49.306Z,65.68
2022-11-25T11:34:48.629Z,65.99
2022-11-25T11:37:44.232Z,66.09
2022-11-25T11:40:14.375Z,66.50
2022-11-25T11:42:52.633Z,67.11
2022-11-25T11:45:25.802Z,67.20
2022-11-25T11:48:08.040Z,67.55
2022-11-25T11:50:40.941Z,67.26
2022-11-25T11:53:54.335Z,67.18
2022-11-25T11:56:35.975Z,66.67
2022-11-25T11:59:30.975Z,66.78
2022-11-25T12:02:10.758Z,66.84
2022-11-25T12:04:41.505Z,67.03
2022-11-25T12:07:40.535Z,66.78
2022-11-25T12:10:24.726Z,65.89
2022-11-25T12:13:13.393Z,66.63
2022-11-25T12:15:46.585Z,66.94
2022-11-25T12:18:20.205Z,66.93
2022-11-25T12:21:08.936Z,66.46
2022-11-25T12:23:44.537Z,66.33
2022-11-25T12:26:22.449Z,67.14
2022-11-25T12:28:57.529Z,66.76
2022-11-25T12:31:30.543Z,66.60
2022-11-25T12:34:19.405Z,66.82
2022-11-25T12:36:47.402Z,67.09
2022-11-25T12:39:17.282Z,67.37
2022-11-25T12:41:53.363Z,66.88
2022-11-25T12:44:26.926Z,66.41
2022-11-25T12:46:57.153Z,66.43
2022-11-25T12:49:32.082Z,66.37
2022-11-25T12:52:36.108Z,66.43
2022-11-25T12:55:06.744Z,66.44
2022-11-25T12:57:55.488Z,66.15
2022-11-25T13:00:43.064Z,66.67
2022-11-25T13:03:40.147Z,66.09
2022-11-25T13:06:22.271Z,66.19
2022-11-25T13:09:14.429Z,65.63
2022-11-25T13:12:01.392Z,65.27
2022-11-25T13:15:01.512Z,65.51
2022-11-25T13:17:36.577Z,65.79
2022-11-25T13:20:26.842Z,65.21
2022-11-25T13:23:11.200Z,66.08
2022-11-25T13:25:42.066Z,66.03
2022-11-25T13:28:38.090Z,65.81
2022-11-25T13:31:14.366Z,66.04
2022-11-25T13:33:44.602Z,65.97
2022-11-25T13:36:45.373Z,66.18
2022-11-25T13:39:18.315Z,66.31
2022-11-25T13:42:00.485Z,66.04
2022-11-25T13:44:32.328Z,65.91
2022-11-25T13:47:20.205Z,66.06
2022-11-25T13:49:50.562Z,66.12
2022-11-25T13:52:20.413Z,66.08
2022-11-25T13:54:53.856Z,66.46
2022-11-25T13:57:30.359Z,66.61
2022-11-25T14:00:10.544Z,66.93
2022-11-25T14:02:49.487Z,66.43
2022-11-25T14:05:26.028Z,66.97
2022-11-25T14:08:07.960Z,67.13
2022-11-25T14:10:38.437Z,67.16
2022-11-25T14:13:16.173Z,67.49
2022-11-25T14:16:17.301Z,67.52
2022-11-25T14:22:11.314Z,67.99
2022-11-25T14:24:49.850Z,68.39
2022-11-25T14:27:25.455Z,69.05
2022-11-25T14:29:59.537Z,69.31
2022-11-25T14:32:30.519Z,69.46
2022-11-25T14:35:09.282Z,69.72
2022-11-25T14:38:09.461Z,70.32
2022-11-25T14:41:01.681Z,70.81
2022-11-25T14:43:31.043Z,71.08
2022-11-25T14:46:16.632Z,71.32
2022-11-25T14:48:44.737Z,71.30
2022-11-25T14:51:13.956Z,71.62
2022-11-25T14:53:48.510Z,72.00
2022-11-25T14:56:22.333Z,71.93
2022-11-25T14:58:52.145Z,71.95
2022-11-25T15:01:20.985Z,72.08
2022-11-25T15:03:49.435Z,71.98
2022-11-25T15:06:20.115Z,72.06
2022-11-25T15:08:59.630Z,71.88
2022-11-25T15:11:29.021Z,71.58
2022-11-25T15:14:07.120Z,71.57
2022-11-25T15:16:39.136Z,71.84
2022-11-25T15:19:16.130Z,71.95
2022-11-25T15:22:15.037Z,71.97
2022-11-25T15:24:42.748Z,71.40
2022-11-25T15:27:22.734Z,71.37
2022-11-25T15:29:49.772Z,71.56
2022-11-25T15:32:25.588Z,71.11
2022-11-25T15:34:54.278Z,71.22
2022-11-25T15:37:21.539Z,70.84
2022-11-25T15:39:48.585Z,70.71
2022-11-25T15:42:23.383Z,70.98
2022-11-25T15:44:55.885Z,70.94
2022-11-25T15:47:24.597Z,70.58
2022-11-25T15:49:57.537Z,70.76
2022-11-25T15:52:25.984Z,70.67
2022-11-25T15:54:57.545Z,70.62
2022-11-25T15:57:24.516Z,70.58
2022-11-25T16:00:14.919Z,70.73
2022-11-25T16:02:41.922Z,70.58
2022-11-25T16:05:18.024Z,70.70
2022-11-25T16:07:51.628Z,70.66
2022-11-25T16:10:45.154Z,70.64
2022-11-25T16:13:23.180Z,70.29
2022-11-25T16:16:11.981Z,70.55
2022-11-25T16:18:48.034Z,70.23
2022-11-25T16:21:18.553Z,70.56
2022-11-25T16:24:05.731Z,70.09
2022-11-25T16:26:52.793Z,69.86
2022-11-25T16:29:31.906Z,69.84
2022-11-25T16:32:00.396Z,70.12
2022-11-25T16:34:27.856Z,69.60
2022-11-25T16:36:54.792Z,69.71
2022-11-25T16:39:22.036Z,69.71
2022-11-25T16:41:58.613Z,69.75
2022-11-25T16:44:27.300Z,69.71
2022-11-25T16:46:54.721Z,69.91
2022-11-25T16:49:22.666Z,69.83
2022-11-25T16:51:50.985Z,69.92
2022-11-25T16:54:22.844Z,69.74
2022-11-25T16:56:53.102Z,69.72
2022-11-25T16:59:34.795Z,69.95
2022-11-25T17:02:02.485Z,69.82
2022-11-25T17:04:29.635Z,70.06
2022-11-25T17:07:31.101Z,69.84
2022-11-25T17:09:45.171Z,69.59
2022-11-25T17:12:18.158Z,69.61
2022-11-25T17:14:47.649Z,69.15
2022-11-25T17:17:24.613Z,69.33
2022-11-25T17:19:53.461Z,69.04
2022-11-25T17:22:24.800Z,69.07
2022-11-25T17:24:52.289Z,69.28
2022-11-25T17:27:28.915Z,69.54
2022-11-25T17:29:58.680Z,69.71
2022-11-25T17:32:26.764Z,70.00
2022-11-25T17:34:53.877Z,70.34
2022-11-25T17:37:23.235Z,70.40
2022-11-25T17:39:52.784Z,70.45
2022-11-25T17:42:28.880Z,70.85
2022-11-25T17:44:56.245Z,70.65
2022-11-25T17:47:23.144Z,70.98
2022-11-25T17:49:50.212Z,70.68
2022-11-25T17:52:17.098Z,70.98
2022-11-25T17:54:44.257Z,71.10
2022-11-25T17:57:17.749Z,71.37
2022-11-25T17:59:44.936Z,71.35
2022-11-25T18:02:20.874Z,71.59
2022-11-25T18:04:48.850Z,71.59
2022-11-25T18:07:15.910Z,71.49
2022-11-25T18:09:44.403Z,71.83
2022-11-25T18:12:23.272Z,71.92
2022-11-25T18:14:50.574Z,71.90
2022-11-25T18:17:19.140Z,72.06
2022-11-25T18:19:52.849Z,71.90
2022-11-25T18:22:21.889Z,72.17
2022-11-25T18:24:48.952Z,71.93
2022-11-25T18:27:27.196Z,72.08
2022-11-25T18:29:55.657Z,72.04
2022-11-25T18:32:23.661Z,72.60
2022-11-25T18:34:51.968Z,72.75
2022-11-25T18:37:19.095Z,72.89
2022-11-25T18:39:46.648Z,72.90
2022-11-25T18:42:32.207Z,73.22
2022-11-25T18:44:59.157Z,72.65
2022-11-25T18:47:26.308Z,72.74
2022-11-25T18:49:56.303Z,72.93
2022-11-25T18:52:24.959Z,72.94
2022-11-25T18:54:52.180Z,72.72
2022-11-25T18:57:19.498Z,72.41
2022-11-25T18:59:56.026Z,72.69
2022-11-25T19:02:34.724Z,72.65
2022-11-25T19:05:02.969Z,72.37
2022-11-25T19:07:30.309Z,72.35
2022-11-25T19:09:57.211Z,72.29
2022-11-25T19:12:26.130Z,72.48
2022-11-25T19:14:53.356Z,72.54
2022-11-25T19:17:24.245Z,72.76
2022-11-25T19:19:51.480Z,72.56
2022-11-25T19:22:19.013Z,72.54
2022-11-25T19:24:48.642Z,72.53
2022-11-25T19:27:23.756Z,72.19
2022-11-25T19:29:52.471Z,72.91
2022-11-25T19:32:26.712Z,73.27
2022-11-25T19:35:01.553Z,73.19
2022-11-25T19:37:30.863Z,73.37
2022-11-25T19:39:58.267Z,73.37
2022-11-25T19:42:28.411Z,73.69
2022-11-25T19:44:55.668Z,73.62
2022-11-25T19:47:25.022Z,74.04
2022-11-25T19:49:56.397Z,74.05
2022-11-25T19:52:35.972Z,74.04
2022-11-25T19:55:22.485Z,74.02
2022-11-25T19:57:50.700Z,74.48
2022-11-25T20:00:19.845Z,74.69
2022-11-25T20:02:49.724Z,75.11
2022-11-25T20:05:25.816Z,75.08
2022-11-25T20:07:52.760Z,75.12
2022-11-25T20:10:24.273Z,74.90
2022-11-25T20:12:52.130Z,74.99
2022-11-25T20:15:20.310Z,75.11
2022-11-25T20:17:58.622Z,74.58
2022-11-25T20:20:25.650Z,74.42
2022-11-25T20:23:14.094Z,74.36
2022-11-25T20:25:45.158Z,73.90
2022-11-25T20:28:15.329Z,74.16
2022-11-25T20:30:42.341Z,73.99
2022-11-25T20:33:09.494Z,73.84
2022-11-25T20:35:36.544Z,74.07
2022-11-25T20:38:04.012Z,73.92
2022-11-25T20:40:39.139Z,73.45
2022-11-25T20:43:30.119Z,73.68
2022-11-25T20:45:58.762Z,73.83
2022-11-25T20:48:26.307Z,74.02
2022-11-25T20:50:53.431Z,74.18
2022-11-25T20:53:22.615Z,74.57
2022-11-25T20:55:50.468Z,74.46
2022-11-25T20:58:17.273Z,74.74
2022-11-25T21:00:44.260Z,75.24
2022-11-25T21:03:11.308Z,75.46
2022-11-25T21:05:38.352Z,75.56
2022-11-25T21:08:15.064Z,75.63
2022-11-25T21:10:42.929Z,75.89
2022-11-25T21:13:16.625Z,76.48
2022-11-25T21:15:43.751Z,76.19
2022-11-25T21:18:11.343Z,76.75
2022-11-25T21:20:39.747Z,76.39
2022-11-25T21:23:12.820Z,76.69
2022-11-25T21:25:39.807Z,76.92
2022-11-25T21:28:06.635Z,76.58
2022-11-25T21:30:34.069Z,76.86
2022-11-25T21:33:01.701Z,76.78
2022-11-25T21:35:34.899Z,76.84
2022-11-25T21:38:15.379Z,77.33
2022-11-25T21:40:46.626Z,77.46
2022-11-25T21:43:21.727Z,77.42
2022-11-25T21:45:52.792Z,77.52
2022-11-25T21:48:23.906Z,77.26
2022-11-25T21:50:52.635Z,77.17
2022-11-25T21:53:19.946Z,77.48
2022-11-25T21:55:47.883Z,77.66
2022-11-25T21:58:26.052Z,77.87
2022-11-25T22:00:58.730Z,77.76
2022-11-25T22:03:29.097Z,77.46
2022-11-25T22:05:56.151Z,77.40
2022-11-25T22:08:24.104Z,77.05
2022-11-25T22:10:54.014Z,76.78
2022-11-25T22:13:31.958Z,76.84
2022-11-25T22:15:59.342Z,76.81
2022-11-25T22:18:32.783Z,76.84
2022-11-25T22:20:59.849Z,76.81
2022-11-25T22:23:27.819Z,76.60
2022-11-25T22:25:55.723Z,76.53
2022-11-25T22:28:26.545Z,76.35
2022-11-25T22:30:56.199Z,76.83
2022-11-25T22:33:30.556Z,77.29
2022-11-25T22:35:58.011Z,77.34
2022-11-25T22:38:25.022Z,77.97
2022-11-25T22:41:04.993Z,78.29
2022-11-25T22:43:37.632Z,78.31
2022-11-25T22:46:05.275Z,78.29
2022-11-25T22:48:39.572Z,78.56
2022-11-25T22:51:16.457Z,78.18
2022-11-25T22:53:43.558Z,77.75
2022-11-25T22:56:17.454Z,77.96
2022-11-25T22:58:44.502Z,77.60
2022-11-25T23:01:16.269Z,77.22
2022-11-25T23:03:44.537Z,77.14
2022-11-25T23:06:14.611Z,76.99
2022-11-25T23:08:41.657Z,76.68
2022-11-25T23:11:17.499Z,76.03
2022-11-25T23:13:44.516Z,75.87
2022-11-25T23:16:11.688Z,75.51
2022-11-25T23:18:42.916Z,75.60
2022-11-25T23:21:29.405Z,75.95
2022-11-25T23:23:56.740Z,76.26
2022-11-25T23:26:23.859Z,76.18
2022-11-25T23:28:51.060Z,76.32
2022-11-25T23:31:18.508Z,76.05
2022-11-25T23:33:51.129Z,75.68
2022-11-25T23:36:23.351Z,75.75
2022-11-25T23:38:57.917Z,75.46
2022-11-25T23:41:27.199Z,75.25
2022-11-25T23:43:54.171Z,75.16
2022-11-25T23:46:25.020Z,75.03
2022-11-25T23:48:58.173Z,75.09
2022-11-25T23:51:27.154Z,74.84
2022-11-25T23:53:55.643Z,75.09
2022-11-25T23:56:22.712Z,74.91
2022-11-25T23:58:50.076Z,75.26
